createdAt,value
2018-09-11T00:02:26.484Z,99.90
2018-09-11T00:04:55.511Z,99.90
2018-09-11T00:07:24.101Z,99.90
2018-09-11T00:09:53.130Z,99.90
2018-09-11T00:12:21.737Z,99.90
2018-09-11T00:14:50.502Z,99.90
2018-09-11T00:17:19.260Z,99.90
2018-09-11T00:19:47.902Z,99.90
2018-09-11T00:22:16.582Z,99.90
2018-09-11T00:24:45.184Z,99.90
2018-09-11T00:27:13.811Z,99.90
2018-09-11T00:29:42.837Z,99.90
2018-09-11T00:32:11.494Z,99.90
2018-09-11T00:34:40.281Z,99.90
2018-09-11T00:37:09.343Z,99.90
2018-09-11T00:39:38.200Z,99.90
2018-09-11T00:42:06.723Z,99.90
2018-09-11T00:44:35.360Z,99.90
2018-09-11T00:47:04.028Z,99.90
2018-09-11T00:49:32.829Z,99.90
2018-09-11T00:52:01.642Z,99.90
2018-09-11T00:54:30.201Z,99.90
2018-09-11T00:56:58.981Z,99.90
2018-09-11T00:59:27.658Z,99.90
2018-09-11T01:01:56.214Z,99.90
2018-09-11T01:04:24.734Z,99.90
2018-09-11T01:06:53.390Z,99.90
2018-09-11T01:09:21.953Z,99.90
2018-09-11T01:11:50.507Z,99.90
2018-09-11T01:14:19.253Z,99.90
2018-09-11T01:16:47.782Z,99.90
2018-09-11T01:19:16.348Z,99.90
2018-09-11T01:21:44.923Z,99.90
2018-09-11T01:24:13.501Z,99.90
2018-09-11T01:26:42.326Z,99.90
2018-09-11T01:29:10.874Z,99.90
2018-09-11T01:31:39.604Z,99.90
2018-09-11T01:34:08.561Z,99.90
2018-09-11T01:36:37.668Z,99.90
2018-09-11T01:39:09.021Z,99.90
2018-09-11T01:41:37.608Z,99.90
2018-09-11T01:44:06.871Z,99.90
2018-09-11T01:46:35.830Z,99.90
2018-09-11T01:49:04.844Z,99.90
2018-09-11T01:51:33.838Z,99.90
2018-09-11T01:54:02.374Z,99.90
2018-09-11T01:56:31.020Z,99.90
2018-09-11T01:58:59.556Z,99.90
2018-09-11T02:01:28.056Z,99.90
2018-09-11T02:03:56.580Z,99.90
2018-09-11T02:06:25.364Z,99.90
2018-09-11T02:08:54.302Z,99.90
2018-09-11T02:11:23.428Z,99.90
2018-09-11T02:13:52.813Z,99.90
2018-09-11T02:16:21.437Z,99.90
2018-09-11T02:18:50.110Z,99.90
2018-09-11T02:21:18.638Z,99.90
2018-09-11T02:23:47.202Z,99.90
2018-09-11T02:26:15.748Z,99.90
2018-09-11T02:28:44.289Z,99.90
2018-09-11T02:31:12.880Z,99.90
2018-09-11T02:33:41.462Z,99.90
2018-09-11T02:36:09.993Z,99.90
2018-09-11T02:38:38.603Z,99.90
2018-09-11T02:41:07.181Z,99.90
2018-09-11T02:43:36.049Z,99.90
2018-09-11T02:46:04.627Z,99.90
2018-09-11T02:48:33.482Z,99.90
2018-09-11T02:51:02.141Z,99.90
2018-09-11T02:53:30.771Z,99.90
2018-09-11T02:55:59.490Z,99.90
2018-09-11T02:58:28.247Z,99.90
2018-09-11T03:00:56.981Z,99.90
2018-09-11T03:03:25.621Z,99.90
2018-09-11T03:05:54.159Z,99.90
2018-09-11T03:08:22.864Z,99.90
2018-09-11T03:10:51.422Z,99.90
2018-09-11T03:13:20.003Z,99.90
2018-09-11T03:15:48.575Z,99.90
2018-09-11T03:18:17.297Z,99.90
2018-09-11T03:20:46.089Z,99.90
2018-09-11T03:23:14.895Z,99.90
2018-09-11T03:25:43.580Z,99.90
2018-09-11T03:28:12.599Z,99.90
2018-09-11T03:30:41.278Z,99.90
2018-09-11T03:33:10.196Z,99.90
2018-09-11T03:35:38.748Z,99.90
2018-09-11T03:38:07.599Z,99.90
2018-09-11T03:40:36.174Z,99.90
2018-09-11T03:43:05.039Z,99.90
2018-09-11T03:45:33.627Z,99.90
2018-09-11T03:48:02.183Z,99.90
2018-09-11T03:50:30.733Z,99.90
2018-09-11T03:52:59.406Z,99.90
2018-09-11T03:55:28.083Z,99.90
2018-09-11T03:57:56.702Z,99.90
2018-09-11T04:00:25.408Z,99.90
2018-09-11T04:02:53.960Z,99.90
2018-09-11T04:05:22.558Z,99.90
2018-09-11T04:07:51.130Z,99.90
2018-09-11T04:10:19.711Z,99.90
2018-09-11T04:12:48.491Z,99.90
2018-09-11T04:15:17.165Z,99.90
2018-09-11T04:17:46.045Z,99.90
2018-09-11T04:20:14.640Z,99.90
2018-09-11T04:22:43.551Z,99.90
2018-09-11T04:25:12.237Z,99.90
2018-09-11T04:27:41.302Z,99.90
2018-09-11T04:30:09.942Z,99.90
2018-09-11T04:32:38.502Z,99.90
2018-09-11T04:35:07.226Z,99.90
2018-09-11T04:37:35.967Z,99.90
2018-09-11T04:40:04.725Z,99.90
2018-09-11T04:42:33.440Z,99.90
2018-09-11T04:45:01.972Z,99.90
2018-09-11T04:47:30.869Z,99.90
2018-09-11T04:49:59.432Z,99.90
2018-09-11T04:52:28.141Z,99.90
2018-09-11T04:54:56.889Z,99.90
2018-09-11T04:57:25.567Z,99.90
2018-09-11T04:59:54.445Z,99.90
2018-09-11T05:02:23.187Z,99.90
2018-09-11T05:04:52.935Z,99.90
2018-09-11T05:07:21.560Z,99.90
2018-09-11T05:09:50.158Z,99.90
2018-09-11T05:12:18.882Z,99.90
2018-09-11T05:14:47.499Z,99.90
2018-09-11T05:17:16.389Z,99.90
2018-09-11T05:19:45.524Z,99.90
2018-09-11T05:22:14.366Z,99.90
2018-09-11T05:24:43.326Z,99.90
2018-09-11T05:27:12.043Z,99.90
2018-09-11T05:29:40.923Z,99.90
2018-09-11T05:32:09.621Z,99.90
2018-09-11T05:34:38.502Z,99.90
2018-09-11T05:37:07.093Z,99.90
2018-09-11T05:39:35.609Z,99.90
2018-09-11T05:42:04.414Z,99.90
2018-09-11T05:44:33.093Z,99.90
2018-09-11T05:47:02.037Z,99.90
2018-09-11T05:49:30.895Z,99.90
2018-09-11T05:51:59.662Z,99.90
2018-09-11T05:54:28.338Z,99.90
2018-09-11T05:56:57.138Z,99.90
2018-09-11T05:59:25.799Z,99.90
2018-09-11T06:01:54.454Z,99.90
2018-09-11T06:04:23.215Z,99.90
2018-09-11T06:06:51.823Z,99.90
2018-09-11T06:09:20.417Z,99.90
2018-09-11T06:11:49.136Z,99.90
2018-09-11T06:14:17.810Z,99.90
2018-09-11T06:16:46.616Z,99.90
2018-09-11T06:19:15.399Z,99.90
2018-09-11T06:21:43.975Z,99.90
2018-09-11T06:24:12.538Z,99.90
2018-09-11T06:26:41.089Z,99.90
2018-09-11T06:29:10.174Z,99.90
2018-09-11T06:31:38.729Z,99.90
2018-09-11T06:34:07.472Z,99.90
2018-09-11T06:36:36.339Z,99.90
2018-09-11T06:39:07.336Z,99.90
2018-09-11T06:41:35.966Z,99.90
2018-09-11T06:44:05.026Z,99.90
2018-09-11T06:46:34.141Z,99.90
2018-09-11T06:49:03.577Z,99.90
2018-09-11T06:51:32.531Z,99.90
2018-09-11T06:54:01.654Z,99.90
2018-09-11T06:56:30.309Z,99.90
2018-09-11T06:58:59.395Z,99.90
2018-09-11T07:01:28.178Z,99.90
2018-09-11T07:03:56.738Z,99.90
2018-09-11T07:06:25.310Z,99.90
2018-09-11T07:08:54.247Z,99.90
2018-09-11T07:11:23.589Z,99.90
2018-09-11T07:13:52.284Z,99.90
2018-09-11T07:16:20.994Z,99.90
2018-09-11T07:18:49.756Z,99.90
2018-09-11T07:21:18.516Z,99.90
2018-09-11T07:23:47.806Z,99.90
2018-09-11T07:26:16.706Z,99.90
2018-09-11T07:28:45.534Z,99.90
2018-09-11T07:31:14.083Z,99.90
2018-09-11T07:33:43.311Z,99.90
2018-09-11T07:36:11.947Z,99.90
2018-09-11T07:38:41.269Z,99.90
2018-09-11T07:41:10.575Z,99.90
2018-09-11T07:43:39.339Z,99.90
2018-09-11T07:46:07.942Z,99.90
2018-09-11T07:48:36.902Z,99.90
2018-09-11T07:51:05.583Z,99.90
2018-09-11T07:53:34.376Z,99.90
2018-09-11T07:56:03.070Z,99.90
2018-09-11T07:58:31.700Z,99.90
2018-09-11T08:01:00.663Z,99.90
2018-09-11T08:03:29.301Z,99.90
2018-09-11T08:05:58.241Z,99.90
2018-09-11T08:08:26.859Z,99.90
2018-09-11T08:10:55.687Z,99.90
2018-09-11T08:13:24.250Z,99.90
2018-09-11T08:15:53.101Z,99.90
2018-09-11T08:18:21.733Z,99.90
2018-09-11T08:20:50.308Z,99.90
2018-09-11T08:23:18.855Z,99.90
2018-09-11T08:25:47.456Z,99.90
2018-09-11T08:28:16.024Z,99.90
2018-09-11T08:30:44.618Z,99.90
2018-09-11T08:33:13.166Z,99.90
2018-09-11T08:35:41.770Z,99.90
2018-09-11T08:38:10.537Z,99.90
2018-09-11T08:40:39.313Z,99.90
2018-09-11T08:43:07.999Z,99.90
2018-09-11T08:45:36.614Z,99.90
2018-09-11T08:48:05.235Z,99.90
2018-09-11T08:50:34.061Z,99.90
2018-09-11T08:53:02.748Z,99.90
2018-09-11T08:55:31.344Z,99.90
2018-09-11T08:58:00.472Z,99.90
2018-09-11T09:00:29.346Z,99.90
2018-09-11T09:02:57.902Z,99.90
2018-09-11T09:05:26.555Z,99.90
2018-09-11T09:07:55.249Z,99.90
2018-09-11T09:10:24.582Z,99.90
2018-09-11T09:12:53.445Z,99.90
2018-09-11T09:15:22.021Z,99.90
2018-09-11T09:17:50.995Z,99.90
2018-09-11T09:20:20.055Z,99.90
2018-09-11T09:22:48.971Z,99.90
2018-09-11T09:25:18.117Z,99.90
2018-09-11T09:27:46.933Z,99.90
2018-09-11T09:30:15.952Z,99.90
2018-09-11T09:32:44.654Z,99.90
2018-09-11T09:35:13.313Z,99.90
2018-09-11T09:37:42.123Z,99.90
2018-09-11T09:40:11.140Z,99.90
2018-09-11T09:42:39.834Z,99.90
2018-09-11T09:45:09.472Z,99.90
2018-09-11T09:47:38.377Z,99.90
2018-09-11T09:50:06.976Z,99.90
2018-09-11T09:52:35.574Z,99.90
2018-09-11T09:55:04.506Z,98.70
2018-09-11T09:57:33.922Z,97.90
2018-09-11T10:00:02.873Z,96.80
2018-09-11T10:02:31.599Z,96.20
2018-09-11T10:05:00.366Z,96.20
2018-09-11T10:07:29.041Z,96.20
2018-09-11T10:09:57.889Z,96.00
2018-09-11T10:12:26.664Z,96.90
2018-09-11T10:14:55.547Z,96.30
2018-09-11T10:17:24.273Z,96.20
2018-09-11T10:19:53.278Z,96.20
2018-09-11T10:22:21.822Z,95.50
2018-09-11T10:24:50.464Z,95.10
2018-09-11T10:27:19.135Z,93.80
2018-09-11T10:29:47.830Z,93.90
2018-09-11T10:32:16.623Z,94.20
2018-09-11T10:34:45.188Z,93.40
2018-09-11T10:37:13.771Z,93.40
2018-09-11T10:39:43.004Z,93.30
2018-09-11T10:42:11.948Z,92.40
2018-09-11T10:44:40.678Z,91.90
2018-09-11T10:47:09.603Z,91.50
2018-09-11T10:49:38.349Z,91.50
2018-09-11T10:52:07.565Z,90.40
2018-09-11T10:54:36.386Z,89.70
2018-09-11T10:57:05.485Z,90.30
2018-09-11T10:59:34.362Z,90.20
2018-09-11T11:02:03.435Z,91.00
2018-09-11T11:04:32.346Z,90.30
2018-09-11T11:07:01.534Z,90.30
2018-09-11T11:09:30.422Z,89.10
2018-09-11T11:11:59.746Z,87.40
2018-09-11T11:14:28.612Z,86.20
2018-09-11T11:16:57.604Z,83.60
2018-09-11T11:19:26.362Z,82.70
2018-09-11T11:21:55.099Z,80.60
2018-09-11T11:24:24.004Z,80.10
2018-09-11T11:26:52.787Z,81.80
2018-09-11T11:29:21.862Z,81.50
2018-09-11T11:31:50.614Z,79.70
2018-09-11T11:34:19.274Z,76.50
2018-09-11T11:36:48.083Z,74.30
2018-09-11T11:39:16.810Z,74.90
2018-09-11T11:41:45.839Z,73.60
2018-09-11T11:44:14.833Z,72.10
2018-09-11T11:46:43.744Z,69.90
2018-09-11T11:49:12.475Z,67.50
2018-09-11T11:51:41.090Z,68.70
2018-09-11T11:54:09.829Z,68.10
2018-09-11T11:56:38.635Z,67.30
2018-09-11T11:59:07.497Z,66.80
2018-09-11T12:01:36.107Z,64.70
2018-09-11T12:04:04.756Z,64.00
2018-09-11T12:06:33.629Z,62.70
2018-09-11T12:09:02.436Z,62.60
2018-09-11T12:11:31.349Z,63.70
2018-09-11T12:14:00.274Z,61.90
2018-09-11T12:16:28.853Z,63.50
2018-09-11T12:18:57.708Z,60.40
2018-09-11T12:21:26.505Z,59.90
2018-09-11T12:23:55.487Z,60.90
2018-09-11T12:26:24.157Z,59.30
2018-09-11T12:28:52.943Z,59.80
2018-09-11T12:31:21.753Z,59.20
2018-09-11T12:33:50.436Z,59.30
2018-09-11T12:36:19.690Z,59.70
2018-09-11T12:38:48.900Z,58.50
2018-09-11T12:41:17.634Z,58.70
2018-09-11T12:43:47.003Z,58.20
2018-09-11T12:46:16.017Z,58.60
2018-09-11T12:48:44.506Z,56.50
2018-09-11T12:51:13.166Z,56.00
2018-09-11T12:53:42.255Z,55.40
2018-09-11T12:56:11.619Z,56.80
2018-09-11T12:58:40.651Z,55.20
2018-09-11T13:01:09.505Z,56.40
2018-09-11T13:03:38.586Z,56.00
2018-09-11T13:06:07.411Z,55.90
2018-09-11T13:08:36.227Z,56.40
2018-09-11T13:11:05.417Z,54.20
2018-09-11T13:13:34.223Z,53.10
2018-09-11T13:16:03.058Z,53.30
2018-09-11T13:18:31.940Z,53.30
2018-09-11T13:21:00.616Z,51.80
2018-09-11T13:23:29.561Z,53.70
2018-09-11T13:25:58.573Z,53.00
2018-09-11T13:28:27.459Z,52.30
2018-09-11T13:30:56.246Z,52.30
2018-09-11T13:33:25.226Z,52.20
2018-09-11T13:35:54.004Z,51.80
2018-09-11T13:38:22.861Z,50.50
2018-09-11T13:40:51.721Z,48.70
2018-09-11T13:43:20.730Z,50.90
2018-09-11T13:45:49.705Z,49.70
2018-09-11T13:48:18.525Z,50.60
2018-09-11T13:50:47.229Z,49.90
2018-09-11T13:53:15.858Z,49.30
2018-09-11T13:55:44.949Z,48.10
2018-09-11T13:58:13.846Z,47.40
2018-09-11T14:00:42.499Z,47.10
2018-09-11T14:03:11.116Z,48.40
2018-09-11T14:05:39.925Z,46.90
2018-09-11T14:08:09.750Z,47.40
2018-09-11T14:10:38.584Z,45.50
2018-09-11T14:13:07.642Z,46.00
2018-09-11T14:15:36.235Z,46.10
2018-09-11T14:18:04.986Z,44.60
2018-09-11T14:20:33.600Z,44.70
2018-09-11T14:23:02.463Z,44.10
2018-09-11T14:25:31.042Z,44.10
2018-09-11T14:27:59.596Z,42.00
2018-09-11T14:30:28.414Z,41.80
2018-09-11T14:32:57.426Z,41.30
2018-09-11T14:35:26.065Z,40.70
2018-09-11T14:37:54.646Z,40.50
2018-09-11T14:40:23.434Z,40.20
2018-09-11T14:42:52.545Z,39.40
2018-09-11T14:45:21.599Z,39.60
2018-09-11T14:47:50.557Z,39.90
2018-09-11T14:50:19.308Z,40.70
2018-09-11T14:52:47.871Z,38.60
2018-09-11T14:55:16.633Z,38.50
2018-09-11T14:57:45.344Z,37.70
2018-09-11T15:00:13.961Z,38.70
2018-09-11T15:02:42.592Z,38.30
2018-09-11T15:05:11.588Z,38.10
2018-09-11T15:07:40.139Z,37.50
2018-09-11T15:10:09.037Z,38.00
2018-09-11T15:12:37.617Z,37.90
2018-09-11T15:15:06.755Z,37.90
2018-09-11T15:17:35.615Z,37.70
2018-09-11T15:20:04.176Z,38.60
2018-09-11T15:22:32.833Z,38.30
2018-09-11T15:25:01.434Z,37.80
2018-09-11T15:27:30.315Z,38.20
2018-09-11T15:29:59.054Z,38.30
2018-09-11T15:32:27.544Z,38.60
2018-09-11T15:34:56.214Z,39.40
2018-09-11T15:37:25.074Z,39.50
2018-09-11T15:39:53.930Z,39.80
2018-09-11T15:42:22.886Z,38.80
2018-09-11T15:44:51.453Z,39.50
2018-09-11T15:47:20.063Z,39.60
2018-09-11T15:49:49.234Z,39.00
2018-09-11T15:52:18.122Z,37.60
2018-09-11T15:54:47.385Z,37.60
2018-09-11T15:57:15.932Z,38.50
2018-09-11T15:59:44.598Z,39.30
2018-09-11T16:02:13.470Z,39.00
2018-09-11T16:04:42.393Z,38.60
2018-09-11T16:07:11.077Z,39.10
2018-09-11T16:09:39.704Z,39.30
2018-09-11T16:12:08.250Z,41.50
2018-09-11T16:14:37.018Z,42.50
2018-09-11T16:17:05.827Z,43.50
2018-09-11T16:19:34.552Z,45.00
2018-09-11T16:22:03.609Z,45.80
2018-09-11T16:24:32.694Z,46.50
2018-09-11T16:27:01.914Z,47.00
2018-09-11T16:29:30.676Z,47.20
2018-09-11T16:31:59.438Z,47.40
2018-09-11T16:34:28.254Z,48.00
2018-09-11T16:36:57.252Z,48.90
2018-09-11T16:39:25.875Z,49.40
2018-09-11T16:41:54.660Z,50.00
2018-09-11T16:44:23.380Z,50.40
2018-09-11T16:46:52.238Z,50.80
2018-09-11T16:49:21.291Z,51.40
2018-09-11T16:51:50.095Z,51.50
2018-09-11T16:54:18.734Z,52.10
2018-09-11T16:56:47.570Z,52.60
2018-09-11T16:59:16.400Z,53.20
2018-09-11T17:01:45.430Z,54.20
2018-09-11T17:04:14.266Z,54.70
2018-09-11T17:06:42.971Z,54.80
2018-09-11T17:09:11.647Z,55.20
2018-09-11T17:11:40.736Z,55.90
2018-09-11T17:14:09.545Z,56.00
2018-09-11T17:16:38.264Z,56.30
2018-09-11T17:19:07.060Z,56.80
2018-09-11T17:21:35.766Z,57.40
2018-09-11T17:24:04.928Z,58.30
2018-09-11T17:26:33.623Z,58.80
2018-09-11T17:29:02.499Z,59.30
2018-09-11T17:31:32.165Z,60.20
2018-09-11T17:34:00.835Z,61.80
2018-09-11T17:36:29.600Z,62.80
2018-09-11T17:38:58.486Z,63.80
2018-09-11T17:41:27.308Z,65.00
2018-09-11T17:43:56.360Z,66.20
2018-09-11T17:46:25.312Z,67.80
2018-09-11T17:48:54.725Z,72.80
2018-09-11T17:51:23.829Z,76.30
2018-09-11T17:53:52.683Z,77.80
2018-09-11T17:56:21.506Z,79.70
2018-09-11T17:58:50.899Z,83.80
2018-09-11T18:01:19.715Z,88.90
2018-09-11T18:03:48.468Z,91.50
2018-09-11T18:06:17.392Z,93.40
2018-09-11T18:08:46.490Z,95.50
2018-09-11T18:11:15.830Z,96.90
2018-09-11T18:13:45.158Z,98.20
2018-09-11T18:16:13.883Z,99.10
2018-09-11T18:18:42.947Z,99.90
2018-09-11T18:21:11.941Z,99.90
2018-09-11T18:23:41.010Z,99.90
2018-09-11T18:26:10.199Z,99.90
2018-09-11T18:28:39.287Z,99.90
2018-09-11T18:31:08.171Z,99.90
2018-09-11T18:33:37.352Z,99.90
2018-09-11T18:36:06.344Z,99.90
2018-09-11T18:38:35.226Z,99.90
2018-09-11T18:41:04.404Z,99.90
2018-09-11T18:43:33.792Z,99.90
2018-09-11T18:46:02.630Z,99.90
2018-09-11T18:48:31.947Z,99.90
2018-09-11T18:51:00.825Z,99.90
2018-09-11T18:53:29.800Z,99.90
2018-09-11T18:55:58.907Z,99.90
2018-09-11T18:58:27.733Z,99.90
2018-09-11T19:00:57.905Z,99.90
2018-09-11T19:03:27.335Z,99.90
2018-09-11T19:05:56.571Z,99.90
2018-09-11T19:08:25.823Z,99.90
2018-09-11T19:10:55.098Z,99.90
2018-09-11T19:13:24.222Z,99.90
2018-09-11T19:15:53.495Z,99.90
2018-09-11T19:18:22.766Z,99.90
2018-09-11T19:20:52.048Z,99.90
2018-09-11T19:23:21.211Z,99.90
2018-09-11T19:25:50.293Z,99.90
2018-09-11T19:28:19.173Z,99.90
2018-09-11T19:30:47.994Z,99.90
2018-09-11T19:33:17.120Z,99.90
2018-09-11T19:35:45.878Z,99.90
2018-09-11T19:38:14.533Z,99.90
2018-09-11T19:40:43.787Z,99.90
2018-09-11T19:43:12.868Z,99.90
2018-09-11T19:45:42.036Z,99.90
2018-09-11T19:48:10.928Z,99.90
2018-09-11T19:50:39.765Z,99.90
2018-09-11T19:53:08.872Z,99.90
2018-09-11T19:55:37.984Z,99.90
2018-09-11T19:58:07.006Z,99.90
2018-09-11T20:00:35.876Z,99.90
2018-09-11T20:03:05.087Z,99.90
2018-09-11T20:05:34.114Z,99.90
2018-09-11T20:08:03.213Z,99.90
2018-09-11T20:10:31.907Z,99.90
2018-09-11T20:13:00.788Z,99.90
2018-09-11T20:15:29.624Z,99.90
2018-09-11T20:17:58.546Z,99.90
2018-09-11T20:20:27.415Z,99.90
2018-09-11T20:22:56.191Z,99.90
2018-09-11T20:25:24.854Z,99.90
2018-09-11T20:27:53.832Z,99.90
2018-09-11T20:30:22.378Z,99.90
2018-09-11T20:32:51.039Z,99.90
2018-09-11T20:35:19.946Z,99.90
2018-09-11T20:37:49.006Z,99.90
2018-09-11T20:40:17.769Z,99.90
2018-09-11T20:42:46.345Z,99.90
2018-09-11T20:45:15.342Z,99.90
2018-09-11T20:47:44.152Z,99.90
2018-09-11T20:50:13.162Z,99.90
2018-09-11T20:52:41.859Z,99.90
2018-09-11T20:55:10.659Z,99.90
2018-09-11T20:57:39.439Z,99.90
2018-09-11T21:00:08.568Z,99.90
2018-09-11T21:02:37.581Z,99.90
2018-09-11T21:05:06.175Z,99.90
2018-09-11T21:07:35.088Z,99.90
2018-09-11T21:10:03.712Z,99.90
2018-09-11T21:12:32.528Z,99.90
2018-09-11T21:15:01.372Z,99.90
2018-09-11T21:17:30.074Z,99.90
2018-09-11T21:19:58.877Z,99.90
2018-09-11T21:22:27.651Z,99.90
2018-09-11T21:24:56.502Z,99.90
2018-09-11T21:27:25.299Z,99.90
2018-09-11T21:29:53.818Z,99.90
2018-09-11T21:32:22.755Z,99.90
2018-09-11T21:34:51.300Z,99.90
2018-09-11T21:37:19.869Z,99.90
2018-09-11T21:39:48.590Z,99.90
2018-09-11T21:42:17.223Z,99.90
2018-09-11T21:44:46.115Z,99.90
2018-09-11T21:47:14.727Z,99.90
2018-09-11T21:49:43.672Z,99.90
2018-09-11T21:52:12.381Z,99.90
2018-09-11T21:54:41.170Z,99.90
2018-09-11T21:57:09.710Z,99.90
2018-09-11T21:59:38.274Z,99.90
2018-09-11T22:02:06.958Z,99.90
2018-09-11T22:04:35.557Z,99.90
2018-09-11T22:07:04.574Z,99.90
2018-09-11T22:09:33.336Z,99.90
2018-09-11T22:12:02.032Z,99.90
2018-09-11T22:14:30.643Z,99.90
2018-09-11T22:16:59.372Z,99.90
2018-09-11T22:19:27.940Z,99.90
2018-09-11T22:21:57.056Z,99.90
2018-09-11T22:24:25.622Z,99.90
2018-09-11T22:26:54.163Z,99.90
2018-09-11T22:29:22.719Z,99.90
2018-09-11T22:31:51.299Z,99.90
2018-09-11T22:34:20.206Z,99.90
2018-09-11T22:36:48.762Z,99.90
2018-09-11T22:39:17.467Z,99.90
2018-09-11T22:41:46.019Z,99.90
2018-09-11T22:58:46.427Z,99.90
2018-09-11T23:01:14.996Z,99.90
2018-09-11T23:03:43.539Z,99.90
2018-09-11T23:06:12.728Z,99.90
2018-09-11T23:08:41.779Z,99.90
2018-09-11T23:11:10.575Z,99.90
2018-09-11T23:13:39.620Z,99.90
2018-09-11T23:16:11.963Z,99.90
2018-09-11T23:18:40.687Z,99.90
2018-09-11T23:21:09.412Z,99.90
2018-09-11T23:23:37.983Z,99.90
2018-09-11T23:26:06.535Z,99.90
2018-09-11T23:28:35.071Z,99.90
2018-09-11T23:31:03.750Z,99.90
2018-09-11T23:33:32.268Z,99.90
2018-09-11T23:36:02.289Z,99.90
2018-09-11T23:38:30.869Z,99.90
2018-09-11T23:40:59.609Z,99.90
2018-09-11T23:43:28.125Z,99.90
2018-09-11T23:45:57.085Z,99.90
2018-09-11T23:48:25.775Z,99.90
2018-09-11T23:50:54.458Z,99.90
2018-09-11T23:53:23.045Z,99.90
2018-09-11T23:55:51.593Z,99.90
2018-09-11T23:58:20.235Z,99.90
